Time;durP1;ratioP1;P1;durP2;ratioP2;P2;SDS_P1;SDS_P2;PMS_P1;PMS_P2;Temp;Humidity;BMP_temperature;BMP_pressure;BME280_temperature;BME280_humidity;BME280_pressure;Samples;Min_cycle;Max_cycle;Signal;HPM_P1;HPM_P2
2023/08/27 07:02:38;;;;;;;13.57;12.15;;;;;;;;;;6294355;22;20347;-81
2023/08/27 07:05:08;;;;;;;14.50;13.00;;;;;;;;;;6308786;22;20007;-82
2023/08/27 07:07:38;;;;;;;13.15;11.95;;;;;;;;;;6309065;22;20111;-88
2023/08/27 07:10:05;;;;;;;13.98;12.57;;;;;;;;;;6309294;22;19999;-82
2023/08/27 07:12:33;;;;;;;12.50;11.40;;;;;;;;;;6309290;22;20022;-90
2023/08/27 07:15:02;;;;;;;15.68;13.02;;;;;;;;;;6309292;22;20001;-82
2023/08/27 07:17:28;;;;;;;14.10;12.80;;;;;;;;;;6308728;22;20007;-90
2023/08/27 07:19:53;;;;;;;13.27;11.98;;;;;;;;;;6308877;22;19995;-90
2023/08/27 07:22:19;;;;;;;13.52;12.05;;;;;;;;;;6281766;22;20010;-90
2023/08/27 07:24:44;;;;;;;14.43;12.75;;;;;;;;;;6309326;22;19999;-89
2023/08/27 07:27:10;;;;;;;13.63;12.30;;;;;;;;;;6314747;22;20027;-89
2023/08/27 07:29:36;;;;;;;13.55;12.23;;;;;;;;;;6281987;22;20304;-90
2023/08/27 07:32:02;;;;;;;13.60;12.30;;;;;;;;;;6312272;22;20112;-85
2023/08/27 07:34:27;;;;;;;13.00;11.90;;;;;;;;;;6310562;22;20006;-82
2023/08/27 07:36:54;;;;;;;13.07;11.80;;;;;;;;;;6308994;22;20007;-89
2023/08/27 07:39:20;;;;;;;13.10;11.80;;;;;;;;;;6309181;22;20074;-88
2023/08/27 07:41:46;;;;;;;12.80;11.50;;;;;;;;;;6281795;22;20010;-89
2023/08/27 07:44:11;;;;;;;13.77;12.45;;;;;;;;;;6309638;22;20007;-86
2023/08/27 07:46:36;;;;;;;12.30;11.20;;;;;;;;;;6308967;22;20007;-83
2023/08/27 07:49:02;;;;;;;13.18;11.95;;;;;;;;;;6308875;22;19999;-88
2023/08/27 07:51:28;;;;;;;13.63;12.25;;;;;;;;;;6308868;22;20070;-85
2023/08/27 07:53:53;;;;;;;12.90;11.70;;;;;;;;;;6308217;22;20326;-83
2023/08/27 07:56:19;;;;;;;13.07;11.77;;;;;;;;;;6308218;22;20061;-83
2023/08/27 07:58:44;;;;;;;13.55;12.25;;;;;;;;;;6308981;22;20044;-90
2023/08/27 08:01:11;;;;;;;13.23;11.90;;;;;;;;;;6308307;22;20008;-89
2023/08/27 08:03:37;;;;;;;13.30;12.10;;;;;;;;;;6308972;22;20391;-83
2023/08/27 08:06:03;;;;;;;13.63;12.10;;;;;;;;;;6309213;22;20035;-88
2023/08/27 08:08:29;;;;;;;13.05;11.85;;;;;;;;;;6309040;22;20013;-91
2023/08/27 08:10:56;;;;;;;14.65;13.25;;;;;;;;;;6309466;22;20051;-91
2023/08/27 08:13:22;;;;;;;14.20;12.70;;;;;;;;;;6309082;22;20011;-89
2023/08/27 08:15:48;;;;;;;14.77;13.13;;;;;;;;;;6309373;22;20363;-89
2023/08/27 08:18:14;;;;;;;15.32;13.82;;;;;;;;;;6309198;22;20002;-87
2023/08/27 08:20:39;;;;;;;17.27;14.40;;;;;;;;;;6308286;22;20090;-83
2023/08/27 08:23:05;;;;;;;14.20;12.80;;;;;;;;;;6308161;22;19992;-88
2023/08/27 08:25:33;;;;;;;14.55;13.15;;;;;;;;;;6308604;22;20007;-88
2023/08/27 08:27:59;;;;;;;14.93;13.43;;;;;;;;;;6308632;22;20329;-90
2023/08/27 08:30:25;;;;;;;14.63;13.13;;;;;;;;;;6308139;22;19995;-82
2023/08/27 08:32:51;;;;;;;13.57;12.18;;;;;;;;;;6307994;22;20365;-82
2023/08/27 08:35:17;;;;;;;14.30;12.90;;;;;;;;;;6308987;22;20000;-88
2023/08/27 08:37:43;;;;;;;14.60;13.30;;;;;;;;;;6308738;22;20026;-82
2023/08/27 08:40:11;;;;;;;14.60;12.80;;;;;;;;;;6309073;22;20438;-86
2023/08/27 08:42:53;;;;;;;14.75;13.32;;;;;;;;;;6308641;22;20078;-84
2023/08/27 08:45:33;;;;;;;16.02;12.93;;;;;;;;;;6280665;22;20037;-84
2023/08/27 08:48:01;;;;;;;14.82;13.18;;;;;;;;;;6308195;22;20011;-84
2023/08/27 08:50:32;;;;;;;16.80;15.10;;;;;;;;;;6308102;22;20060;-83
2023/08/27 08:53:02;;;;;;;17.45;14.68;;;;;;;;;;6308375;22;20007;-84
2023/08/27 08:55:30;;;;;;;14.77;13.38;;;;;;;;;;6307914;22;20004;-82
2023/08/27 08:58:01;;;;;;;18.52;15.75;;;;;;;;;;6307900;22;20007;-84
2023/08/27 09:00:28;;;;;;;18.45;15.32;;;;;;;;;;6307995;22;20076;-85
2023/08/27 09:02:54;;;;;;;16.33;14.80;;;;;;;;;;6307608;22;20007;-85
2023/08/27 09:05:21;;;;;;;16.25;14.50;;;;;;;;;;6307803;22;20015;-84
2023/08/27 09:07:48;;;;;;;16.17;14.55;;;;;;;;;;6308703;22;20007;-85
2023/08/27 09:10:14;;;;;;;16.95;15.35;;;;;;;;;;6310221;22;20326;-86
2023/08/27 09:12:41;;;;;;;17.13;15.43;;;;;;;;;;6311952;22;20422;-86
2023/08/27 09:15:13;;;;;;;15.68;14.18;;;;;;;;;;6282937;22;20030;-86
2023/08/27 09:17:38;;;;;;;16.17;14.57;;;;;;;;;;6285009;22;20003;-89
2023/08/27 09:20:05;;;;;;;18.13;14.98;;;;;;;;;;6310590;22;20003;-90
2023/08/27 09:22:31;;;;;;;18.10;15.90;;;;;;;;;;6311891;22;19999;-88
2023/08/27 09:24:56;;;;;;;20.92;16.15;;;;;;;;;;6283216;22;20007;-91
2023/08/27 09:27:23;;;;;;;16.70;15.02;;;;;;;;;;6256925;22;20315;-88
2023/08/27 09:29:51;;;;;;;16.42;14.82;;;;;;;;;;6309826;22;20030;-88
2023/08/27 09:32:23;;;;;;;18.08;16.25;;;;;;;;;;6282455;22;20444;-88
2023/08/27 09:34:56;;;;;;;17.10;15.50;;;;;;;;;;6282169;22;20056;-88
2023/08/27 09:37:22;;;;;;;17.25;15.43;;;;;;;;;;6282390;22;20031;-89
2023/08/27 09:39:49;;;;;;;18.70;16.75;;;;;;;;;;6309597;22;20045;-88
2023/08/27 09:42:16;;;;;;;18.58;16.67;;;;;;;;;;6309728;22;20076;-88
2023/08/27 09:44:49;;;;;;;18.95;17.10;;;;;;;;;;6282393;22;20430;-88
2023/08/27 09:47:14;;;;;;;16.92;15.13;;;;;;;;;;6310708;22;20004;-89
2023/08/27 09:49:43;;;;;;;18.17;16.20;;;;;;;;;;6282268;22;20065;-89
2023/08/27 09:52:08;;;;;;;18.08;16.27;;;;;;;;;;6282028;22;20004;-89
2023/08/27 09:54:34;;;;;;;18.48;16.67;;;;;;;;;;6309719;22;20303;-88
2023/08/27 09:56:59;;;;;;;17.48;15.38;;;;;;;;;;6310049;22;20007;-88
2023/08/27 09:59:26;;;;;;;15.73;14.23;;;;;;;;;;6309514;22;20003;-88
2023/08/27 10:01:52;;;;;;;16.67;15.07;;;;;;;;;;6310065;22;20054;-91
2023/08/27 10:04:20;;;;;;;16.88;15.27;;;;;;;;;;6284417;22;20014;-88
2023/08/27 10:06:45;;;;;;;17.13;15.40;;;;;;;;;;6282734;22;20007;-89
2023/08/27 10:09:11;;;;;;;16.55;14.95;;;;;;;;;;6311206;22;20025;-86
2023/08/27 10:11:37;;;;;;;15.45;13.95;;;;;;;;;;6311415;22;20003;-90
2023/08/27 10:14:04;;;;;;;15.48;13.85;;;;;;;;;;6282888;22;20003;-88
2023/08/27 10:16:36;;;;;;;16.60;14.50;;;;;;;;;;6310330;22;20007;-92
2023/08/27 10:19:04;;;;;;;15.93;14.43;;;;;;;;;;6282568;22;19996;-89
2023/08/27 10:21:30;;;;;;;14.82;13.40;;;;;;;;;;6309646;22;19999;-87
2023/08/27 10:23:57;;;;;;;15.07;13.52;;;;;;;;;;6309260;22;19999;-87
2023/08/27 10:26:23;;;;;;;14.52;13.02;;;;;;;;;;6308993;22;19999;-84
2023/08/27 10:28:51;;;;;;;15.30;13.70;;;;;;;;;;6309104;22;20049;-84
2023/08/27 10:31:16;;;;;;;13.82;12.63;;;;;;;;;;6309176;22;19999;-85
2023/08/27 10:33:42;;;;;;;14.60;13.20;;;;;;;;;;6309065;22;20322;-86
2023/08/27 10:36:20;;;;;;;14.25;12.95;;;;;;;;;;6309020;22;19995;-84
2023/08/27 10:38:48;;;;;;;14.13;12.88;;;;;;;;;;6309307;22;20125;-84
2023/08/27 10:41:20;;;;;;;14.90;13.40;;;;;;;;;;6309204;22;20003;-87
2023/08/27 10:43:45;;;;;;;14.13;12.80;;;;;;;;;;6309919;22;20018;-88
2023/08/27 10:46:20;;;;;;;14.88;13.48;;;;;;;;;;6309357;22;19999;-89
2023/08/27 10:48:50;;;;;;;14.98;13.43;;;;;;;;;;6309528;22;20050;-92
2023/08/27 10:51:17;;;;;;;19.15;17.17;;;;;;;;;;6309573;22;20082;-89
2023/08/27 10:53:49;;;;;;;16.77;14.98;;;;;;;;;;6283280;22;20368;-91
2023/08/27 10:56:26;;;;;;;14.32;12.88;;;;;;;;;;6285713;22;20007;-89
2023/08/27 10:58:56;;;;;;;14.10;12.65;;;;;;;;;;6284539;22;20003;-91
2023/08/27 11:01:21;;;;;;;13.73;12.43;;;;;;;;;;6313120;22;20004;-90
2023/08/27 11:03:50;;;;;;;14.80;13.40;;;;;;;;;;6283503;22;20017;-93
2023/08/27 11:06:16;;;;;;;13.20;12.05;;;;;;;;;;6310958;22;20011;-89
2023/08/27 11:08:41;;;;;;;13.35;12.05;;;;;;;;;;6283669;22;20033;-88
2023/08/27 11:11:11;;;;;;;13.95;12.32;;;;;;;;;;6312396;22;19999;-89
2023/08/27 11:13:38;;;;;;;14.25;11.80;;;;;;;;;;6256770;22;20039;-88
2023/08/27 11:16:12;;;;;;;13.50;12.30;;;;;;;;;;6309344;22;20022;-90
2023/08/27 11:19:09;;;;;;;14.23;12.82;;;;;;;;;;6282286;22;20007;-89
2023/08/27 11:21:34;;;;;;;14.20;12.90;;;;;;;;;;6308645;22;20082;-90
2023/08/27 11:24:16;;;;;;;13.38;12.02;;;;;;;;;;6310033;22;20006;-91
2023/08/27 11:26:42;;;;;;;13.82;12.52;;;;;;;;;;6309112;22;20007;-91
2023/08/27 11:29:09;;;;;;;14.25;12.85;;;;;;;;;;6281771;22;20030;-89
2023/08/27 11:31:37;;;;;;;14.43;12.93;;;;;;;;;;6308762;22;20009;-87
2023/08/27 11:34:04;;;;;;;14.20;12.77;;;;;;;;;;6282033;22;20003;-87
2023/08/27 11:36:30;;;;;;;14.65;13.27;;;;;;;;;;6281215;22;20007;-90
2023/08/27 11:41:23;;;;;;;14.68;13.25;;;;;;;;;;6332790;22;20019;-85
2023/08/27 11:43:56;;;;;;;13.48;12.18;;;;;;;;;;6308384;22;20395;-82
2023/08/27 11:46:22;;;;;;;14.18;12.88;;;;;;;;;;6308458;22;20006;-84
2023/08/27 11:48:48;;;;;;;14.63;13.23;;;;;;;;;;6308178;22;20081;-83
2023/08/27 11:51:15;;;;;;;15.25;13.73;;;;;;;;;;6281224;22;20003;-85
2023/08/27 11:53:44;;;;;;;15.30;13.80;;;;;;;;;;6308357;22;20077;-82
2023/08/27 11:56:11;;;;;;;;;;;;;;;;;;6309239;22;19999;-83
2023/08/27 11:58:39;;;;;;;15.98;14.48;;;;;;;;;;6308015;22;20032;-88
2023/08/27 12:01:05;;;;;;;14.75;13.40;;;;;;;;;;6308130;22;20010;-84
2023/08/27 12:03:33;;;;;;;13.80;12.48;;;;;;;;;;6308185;22;20003;-83
2023/08/27 12:05:59;;;;;;;14.77;13.27;;;;;;;;;;6307918;22;20107;-84
2023/08/27 12:08:24;;;;;;;14.07;12.60;;;;;;;;;;6308091;22;20007;-83
2023/08/27 12:10:50;;;;;;;13.88;12.48;;;;;;;;;;6308083;22;20403;-82
2023/08/27 12:13:15;;;;;;;13.57;12.23;;;;;;;;;;6308087;22;20094;-83
2023/08/27 12:15:42;;;;;;;13.77;11.98;;;;;;;;;;6308117;22;20363;-83
2023/08/27 12:18:08;;;;;;;12.80;11.50;;;;;;;;;;6308167;22;20488;-83
2023/08/27 12:20:36;;;;;;;12.38;10.93;;;;;;;;;;6308153;22;19999;-85
2023/08/27 12:23:12;;;;;;;14.77;11.70;;;;;;;;;;6307952;22;20371;-83
2023/08/27 12:25:49;;;;;;;12.52;11.32;;;;;;;;;;6307414;22;20361;-83
2023/08/27 12:28:16;;;;;;;12.45;10.80;;;;;;;;;;6307963;22;19999;-83
2023/08/27 12:30:52;;;;;;;13.32;10.90;;;;;;;;;;6308072;22;20002;-83
2023/08/27 12:33:17;;;;;;;12.32;10.77;;;;;;;;;;6280490;22;20333;-87
2023/08/27 12:35:47;;;;;;;12.60;11.30;;;;;;;;;;6307768;22;19999;-86
2023/08/27 12:38:14;;;;;;;13.10;11.80;;;;;;;;;;6307982;22;19999;-85
2023/08/27 12:40:40;;;;;;;11.93;10.75;;;;;;;;;;6307960;22;20011;-85
2023/08/27 12:43:05;;;;;;;12.52;10.57;;;;;;;;;;6308710;22;20078;-86
2023/08/27 12:45:31;;;;;;;12.88;10.13;;;;;;;;;;6310237;22;20056;-84
2023/08/27 12:48:01;;;;;;;11.55;10.35;;;;;;;;;;6310005;22;20330;-84
2023/08/27 12:50:26;;;;;;;11.00;9.85;;;;;;;;;;6282783;22;20439;-83
2023/08/27 12:52:52;;;;;;;10.75;9.75;;;;;;;;;;6309788;22;20005;-83
2023/08/27 12:55:19;;;;;;;14.65;10.65;;;;;;;;;;6310177;22;20089;-84
2023/08/27 12:57:44;;;;;;;10.93;8.43;;;;;;;;;;6310268;22;20074;-84
2023/08/27 13:00:10;;;;;;;11.82;8.98;;;;;;;;;;6309866;22;20045;-83
2023/08/27 13:02:36;;;;;;;11.25;9.38;;;;;;;;;;6309651;22;20334;-84
2023/08/27 13:05:04;;;;;;;9.75;8.57;;;;;;;;;;6310468;22;20419;-83
2023/08/27 13:07:31;;;;;;;14.00;9.60;;;;;;;;;;6282540;22;20026;-82
2023/08/27 13:09:56;;;;;;;11.70;9.10;;;;;;;;;;6309825;22;20336;-83
2023/08/27 13:12:22;;;;;;;12.10;9.73;;;;;;;;;;6309867;22;20023;-82
2023/08/27 13:14:48;;;;;;;14.45;10.05;;;;;;;;;;6309832;22;20080;-82
2023/08/27 13:17:14;;;;;;;14.88;10.75;;;;;;;;;;6309667;22;20354;-82
2023/08/27 13:19:39;;;;;;;11.32;10.13;;;;;;;;;;6309635;22;20052;-83
2023/08/27 13:22:04;;;;;;;12.15;9.93;;;;;;;;;;6310117;22;20003;-83
2023/08/27 13:24:30;;;;;;;14.52;10.63;;;;;;;;;;6282456;22;20003;-82
2023/08/27 15:07:06;;;;;;;10.43;8.00;;;;;;;;;;6320242;22;20433;-85
2023/08/27 15:09:32;;;;;;;10.50;8.07;;;;;;;;;;6307769;22;20349;-89
2023/08/27 15:11:57;;;;;;;10.18;8.32;;;;;;;;;;6308227;22;20014;-85
2023/08/27 15:14:23;;;;;;;9.45;8.55;;;;;;;;;;6280610;22;20010;-85
2023/08/27 15:16:50;;;;;;;9.15;7.65;;;;;;;;;;6277874;22;20036;-82
2023/08/27 15:19:16;;;;;;;8.00;6.75;;;;;;;;;;6277414;22;20003;-84
2023/08/27 15:21:42;;;;;;;9.50;7.70;;;;;;;;;;6277437;22;20326;-83
2023/08/27 15:24:08;;;;;;;9.07;7.28;;;;;;;;;;6277089;22;20422;-85
2023/08/27 15:26:33;;;;;;;9.02;8.07;;;;;;;;;;6277335;22;20031;-83
2023/08/27 15:28:59;;;;;;;8.43;7.35;;;;;;;;;;6277329;22;20318;-84
2023/08/27 15:31:24;;;;;;;9.43;7.75;;;;;;;;;;6277424;22;19999;-85
2023/08/27 15:33:50;;;;;;;9.52;8.20;;;;;;;;;;6277109;22;20000;-84
2023/08/27 15:36:16;;;;;;;9.35;8.30;;;;;;;;;;6277149;22;20008;-83
2023/08/27 15:38:42;;;;;;;9.30;7.90;;;;;;;;;;6277413;22;20311;-85
2023/08/27 15:41:07;;;;;;;11.07;8.07;;;;;;;;;;6277312;22;20007;-83
2023/08/27 15:43:37;;;;;;;10.95;8.90;;;;;;;;;;6277348;22;20484;-84
2023/08/27 17:34:43;;;;;;;9.02;5.90;;;;;;;;;;6336725;22;20342;-92
2023/08/27 17:37:08;;;;;;;8.63;6.72;;;;;;;;;;6317731;22;20011;-96
2023/08/27 17:39:34;;;;;;;9.00;6.53;;;;;;;;;;6317353;22;20058;-89
2023/08/27 17:42:04;;;;;;;6.53;5.82;;;;;;;;;;6302354;22;20433;-92
2023/08/27 17:44:34;;;;;;;9.60;6.22;;;;;;;;;;6294770;22;19999;-93
2023/08/27 17:47:00;;;;;;;7.18;5.97;;;;;;;;;;6285101;22;20039;-93
2023/08/27 17:49:26;;;;;;;7.13;6.20;;;;;;;;;;6287648;22;20006;-93
2023/08/27 17:51:51;;;;;;;6.25;5.57;;;;;;;;;;6284865;22;20049;-90
2023/08/27 17:54:20;;;;;;;7.28;6.38;;;;;;;;;;6312005;22;20008;-91
2023/08/27 17:56:49;;;;;;;8.68;6.43;;;;;;;;;;6284590;22;20011;-91
2023/08/27 17:59:20;;;;;;;11.38;6.35;;;;;;;;;;6284587;22;20483;-94
2023/08/27 18:01:45;;;;;;;6.82;6.07;;;;;;;;;;6283783;22;20414;-93
2023/08/27 18:04:14;;;;;;;9.80;6.75;;;;;;;;;;6285354;22;20003;-93
2023/08/27 18:06:39;;;;;;;8.55;6.35;;;;;;;;;;6282927;22;20011;-86
2023/08/27 18:09:05;;;;;;;6.90;6.07;;;;;;;;;;6309184;22;20010;-86
2023/08/27 18:11:31;;;;;;;8.23;5.90;;;;;;;;;;6309312;22;20373;-88
2023/08/27 18:13:57;;;;;;;10.23;6.85;;;;;;;;;;6299876;22;20019;-89
2023/08/27 18:16:26;;;;;;;8.23;6.60;;;;;;;;;;6309039;22;20034;-94
2023/08/27 18:18:51;;;;;;;8.60;5.93;;;;;;;;;;6306630;22;20007;-93
2023/08/27 18:21:20;;;;;;;7.22;6.22;;;;;;;;;;6308974;22;20018;-93
2023/08/27 18:23:45;;;;;;;6.57;5.90;;;;;;;;;;6309003;22;20012;-92
2023/08/27 18:26:16;;;;;;;8.70;6.35;;;;;;;;;;6308525;22;20611;-89
2023/08/27 18:28:44;;;;;;;7.57;6.28;;;;;;;;;;6307895;22;20104;-89
2023/08/27 18:31:10;;;;;;;7.78;6.65;;;;;;;;;;6308348;22;20072;-90
2023/08/27 18:33:35;;;;;;;8.38;6.18;;;;;;;;;;6308441;22;20004;-90
2023/08/27 18:36:01;;;;;;;6.85;5.93;;;;;;;;;;6308684;22;20003;-91
2023/08/27 18:38:26;;;;;;;12.30;8.13;;;;;;;;;;6308118;22;20008;-91
2023/08/27 18:40:53;;;;;;;8.85;7.97;;;;;;;;;;6307248;22;20010;-92
2023/08/27 18:43:19;;;;;;;9.80;6.97;;;;;;;;;;6308668;22;20004;-92
2023/08/27 18:45:44;;;;;;;7.07;6.38;;;;;;;;;;6308529;22;20010;-93
2023/08/27 18:48:13;;;;;;;8.70;6.70;;;;;;;;;;6308562;22;20403;-92
2023/08/27 18:50:43;;;;;;;10.10;7.03;;;;;;;;;;6308356;22;20011;-92
2023/08/27 18:53:08;;;;;;;8.85;7.10;;;;;;;;;;6308059;22;20231;-92
2023/08/27 18:55:37;;;;;;;8.63;6.57;;;;;;;;;;6310059;22;19999;-95
2023/08/27 18:58:02;;;;;;;8.55;7.00;;;;;;;;;;6308783;22;20007;-92
2023/08/27 19:00:28;;;;;;;6.70;5.75;;;;;;;;;;6308365;22;20007;-94
2023/08/27 19:02:53;;;;;;;7.97;6.15;;;;;;;;;;6307639;22;20414;-93
2023/08/27 19:05:19;;;;;;;8.07;6.10;;;;;;;;;;6308293;22;20030;-93
2023/08/27 19:07:44;;;;;;;8.43;6.07;;;;;;;;;;6308042;22;20011;-95
2023/08/27 19:10:12;;;;;;;8.05;6.50;;;;;;;;;;6315843;22;20048;-96
2023/08/27 19:12:38;;;;;;;8.63;6.15;;;;;;;;;;6314778;22;19995;-93
2023/08/27 19:15:06;;;;;;;6.95;6.25;;;;;;;;;;6315912;22;20090;-96
2023/08/27 19:17:32;;;;;;;9.55;6.20;;;;;;;;;;6310703;22;19999;-92
2023/08/27 19:19:57;;;;;;;8.35;6.30;;;;;;;;;;6313841;22;20015;-96
2023/08/27 19:22:28;;;;;;;7.80;6.15;;;;;;;;;;6312547;22;20007;-96
2023/08/27 19:25:05;;;;;;;6.85;6.05;;;;;;;;;;6317720;22;19999;-95
2023/08/27 19:27:35;;;;;;;;;;;;;;;;;;6317449;22;20424;-95
2023/08/27 19:30:01;;;;;;;7.35;6.30;;;;;;;;;;6312301;22;19911;-95
2023/08/27 19:32:37;;;;;;;7.97;5.47;;;;;;;;;;6317462;22;20007;-96
2023/08/27 19:35:08;;;;;;;6.80;5.32;;;;;;;;;;6320589;22;19994;-95
2023/08/27 19:37:33;;;;;;;7.32;5.70;;;;;;;;;;6317115;22;19999;-94
2023/08/27 19:40:03;;;;;;;7.18;5.75;;;;;;;;;;6318938;22;20003;-96
2023/08/27 19:42:29;;;;;;;7.10;6.40;;;;;;;;;;6312375;22;20418;-96
2023/08/27 19:44:55;;;;;;;6.45;5.60;;;;;;;;;;6309811;22;20006;-96
2023/08/27 19:47:32;;;;;;;8.18;6.57;;;;;;;;;;6308821;22;20011;-95
2023/08/27 19:49:58;;;;;;;7.53;5.93;;;;;;;;;;6309611;22;20034;-95
2023/08/27 19:52:23;;;;;;;8.43;6.50;;;;;;;;;;6311593;22;19999;-94
2023/08/27 19:54:49;;;;;;;7.80;6.97;;;;;;;;;;6315359;22;20003;-94
2023/08/27 19:57:14;;;;;;;10.27;6.93;;;;;;;;;;6313477;22;20037;-95
2023/08/27 19:59:40;;;;;;;11.13;7.05;;;;;;;;;;6311149;22;20078;-93
2023/08/27 20:02:23;;;;;;;9.57;7.22;;;;;;;;;;6309839;22;20033;-94
2023/08/27 20:04:48;;;;;;;7.50;6.80;;;;;;;;;;6310868;22;20011;-96
2023/08/27 20:07:17;;;;;;;8.55;6.30;;;;;;;;;;6310721;22;20444;-96
2023/08/27 20:09:43;;;;;;;7.60;6.60;;;;;;;;;;6312169;22;20025;-96
2023/08/27 20:12:08;;;;;;;8.15;6.80;;;;;;;;;;6313736;22;20007;-96
2023/08/27 20:14:34;;;;;;;10.50;6.40;;;;;;;;;;6317216;22;20026;-95
2023/08/27 20:16:59;;;;;;;7.20;6.45;;;;;;;;;;6312305;22;20019;-94
2023/08/27 20:19:24;;;;;;;9.63;6.45;;;;;;;;;;6311329;22;20049;-94
2023/08/27 20:21:50;;;;;;;9.00;7.45;;;;;;;;;;6313996;22;20061;-94
2023/08/27 20:24:15;;;;;;;7.85;7.05;;;;;;;;;;6320086;22;20041;-96
2023/08/27 20:26:41;;;;;;;11.52;7.18;;;;;;;;;;6323547;22;20002;-93
2023/08/27 20:29:06;;;;;;;8.02;6.57;;;;;;;;;;6326996;22;20055;-94
2023/08/27 20:31:32;;;;;;;10.07;7.00;;;;;;;;;;6325628;22;20006;-93
2023/08/27 20:33:58;;;;;;;9.98;6.72;;;;;;;;;;6328884;22;19999;-94
2023/08/27 20:36:24;;;;;;;11.05;6.88;;;;;;;;;;6328165;22;20319;-94
2023/08/27 20:38:51;;;;;;;7.85;6.95;;;;;;;;;;6311393;22;20003;-95
2023/08/27 20:41:17;;;;;;;7.28;6.57;;;;;;;;;;6312116;22;20011;-96
2023/08/27 20:43:45;;;;;;;7.57;6.82;;;;;;;;;;6310492;22;20007;-96
2023/08/27 20:46:13;;;;;;;8.55;6.65;;;;;;;;;;6310708;22;20010;-96
2023/08/27 20:48:39;;;;;;;7.22;6.53;;;;;;;;;;6308410;22;20068;-96
2023/08/27 20:51:04;;;;;;;8.45;7.05;;;;;;;;;;6308190;22;20086;-95
2023/08/27 20:53:30;;;;;;;7.32;6.63;;;;;;;;;;6307692;22;20039;-95
2023/08/27 20:55:57;;;;;;;9.00;6.75;;;;;;;;;;6308020;22;20017;-94
2023/08/27 20:58:22;;;;;;;9.98;7.25;;;;;;;;;;6307785;22;20038;-95
2023/08/27 21:00:48;;;;;;;9.95;8.05;;;;;;;;;;6307849;22;20007;-94
2023/08/27 21:03:13;;;;;;;10.98;8.77;;;;;;;;;;6307979;22;20108;-94
2023/08/27 21:05:42;;;;;;;9.68;7.47;;;;;;;;;;6309708;22;20008;-94
2023/08/27 21:08:11;;;;;;;6.63;5.97;;;;;;;;;;6309931;22;20003;-95
2023/08/27 21:10:36;;;;;;;8.35;6.18;;;;;;;;;;6309691;22;20030;-94
2023/08/27 21:13:03;;;;;;;6.75;5.97;;;;;;;;;;6309336;22;20015;-95
2023/08/27 21:15:28;;;;;;;6.28;5.70;;;;;;;;;;6309647;22;20414;-94
2023/08/27 21:17:54;;;;;;;7.47;6.00;;;;;;;;;;6309929;22;20010;-95
2023/08/27 21:20:20;;;;;;;8.48;6.57;;;;;;;;;;6309792;22;20010;-96
2023/08/27 21:22:45;;;;;;;6.60;6.00;;;;;;;;;;6310241;22;20007;-95
2023/08/27 21:25:11;;;;;;;6.22;5.43;;;;;;;;;;6310351;22;20326;-94
2023/08/27 21:27:36;;;;;;;6.28;5.60;;;;;;;;;;6309325;22;20383;-96
2023/08/27 21:30:02;;;;;;;6.18;5.50;;;;;;;;;;6309352;22;20007;-94
2023/08/27 21:32:31;;;;;;;7.13;5.90;;;;;;;;;;6309859;22;20072;-96
2023/08/27 21:34:56;;;;;;;7.28;5.93;;;;;;;;;;6309684;22;20334;-95
2023/08/27 21:37:22;;;;;;;7.57;6.35;;;;;;;;;;6284704;22;20011;-90
2023/08/27 21:39:48;;;;;;;10.55;6.30;;;;;;;;;;6316387;22;20003;-96
